Información del aeropuerto LEBZ

Información de pista
Pista 13 Longitud 9350 ft Anchura 197 ft
Elevación 579 ft Umbral 0 ft Rumbo 126
Pista 31 Longitud 9350 ft Anchura 197 ft
Elevación 609 ft Umbral 0 ft Rumbo 306
Frecuencias del aeropuerto
Tipo APP Nombre APP Frecuencia 139.3 MHZ
Tipo TWR Nombre BADAJOZ TW Frecuencia 122.1 MHZ
Radioayudas del aeropuerto
Tipo NDB Nombre Badajoz Frecuencia 298 KHZ
Tipo TACAN Nombre Talavera Frecuencia 108800 KHZ
Tipo VOR-DME Nombre Badajoz Frecuencia 116800 KHZ
Información meteorológica del aeropuerto y NOTAM
ADDS - METARS form results

(2356 UTC 23 June 2021)
Data provider http://aviationweather.gov/metar/data/
 
METAR text: LEBZ 232330Z 27006KT CAVOK 19/14 Q1017
Conditions at: LEBZ (TALAVERA AB/BADA, ES) observed 2330 UTC 23 June 2021
Temperature: 19.0°C (66°F)
Dewpoint: 14.0°C (57°F) [RH = 73%]
Pressure (altimeter): 30.03 inches Hg (1017.0 mb)
Winds: from the W (270 degrees) at 7 MPH (6 knots; 3.1 m/s)
Visibility: 6 or more miles (10+ km)
Ceiling: ceiling and visibility are OK
Clouds: unknown
Weather: no significant weather observed at this time

METAR text: LEBZ 232300Z 27006KT CAVOK 19/13 Q1017
Conditions at: LEBZ (TALAVERA AB/BADA, ES) observed 2300 UTC 23 June 2021
Temperature: 19.0°C (66°F)
Dewpoint: 13.0°C (55°F) [RH = 68%]
Pressure (altimeter): 30.03 inches Hg (1017.0 mb)
Winds: from the W (270 degrees) at 7 MPH (6 knots; 3.1 m/s)
Visibility: 6 or more miles (10+ km)
Ceiling: ceiling and visibility are OK
Clouds: unknown
Weather: no significant weather observed at this time

Forecast for: LEBZ (TALAVERA AB/BADA, ES)
Text: TAF LEBZ 232000Z 2321/2421 VRB03KT CAVOK TX33/2416Z TN15/2405Z
Forecast period: 2100 UTC 23 June 2021 to 2100 UTC 24 June 2021
Forecast type: FROM: standard forecast or significant change
Winds: variable direction winds at 3 MPH (3 knots; 1.5 m/s)
Visibility: 6 or more miles (10+ km)
Ceiling: unknown
Clouds: missing
Weather: no significant weather forecast for this period